North Platte Regional Airport Lee Bird Field North Platte US
ICAO: KLBF
IATA: LBF
Category: Medium
Scheduled Services: Yes

Elevation: 2777 ft
TransAlt. 18000 ft.

Airport Communications:
ASOS:118.425
CLNC DEL:132.7
DENVER CNTR:132.7
COLUMBUS RDO:122.5
CTAF/UNICOM:123

KLBF Zoom In..

Runways:

(A) RW 12 length 8001 ft width 150 ft
---- / hdg 117

(B) RW 17 length 4436 ft width 100 ft
---- / hdg 172

(C) RW 30 length 8001 ft width 150 ft
ILS 111.50 / hdg 297

(D) RW 35 length 4436 ft width 100 ft
---- / hdg 352

Location; KLBF
Day. 19 / Time. 20.53 Zulu
* Altimeter: 29.92
* Temperature: 33° c. 91.4°f.
* Wind from: 240° Speed 04 kn.
Dewpoint: 21° c.
Visibility: 10 Statute Miles.
Clouds: Clear (automated report).

KLBF 192053Z AUTO 24004KT 10SM CLR 33/21 A2992 RMK AO2 SLP099 T03280206 56009


Wind From 240°
Speed 04 kn.

 
 
jpsmedia.com for Web Design worldairports.se 2018   terms of use